Terminal Aerodrome Forecast
Issued by NWS Sterling, VA

Current Version | Previous Version | Text Only | Print | Product List | Glossary Off
Versions: 1 2 3 4 5 6 7 8 9 10 11 12 13 14 15 16 17 18 19 20 21 22 23 24

889
FTUS41 KLWX 251132
TAFDCA
TAF
KDCA 251132Z 2512/2612 VRB04KT 5SM -RA BKN008 OVC015
     FM251400 19008KT P6SM BKN015
     FM251600 19008KT P6SM BKN030
     FM251800 20009KT P6SM -SHRA VCTS BKN045CB
     FM252300 22010KT P6SM -SHRA BKN045
     FM260000 23009KT P6SM BKN045=

USA.gov is the U.S. government's official web portal to all federal, state and local government web resources and services.